Time;durP1;ratioP1;P1;durP2;ratioP2;P2;SDS_P1;SDS_P2;PMS_P1;PMS_P2;Temp;Humidity;BMP_temperature;BMP_pressure;BME280_temperature;BME280_humidity;BME280_pressure;Samples;Min_cycle;Max_cycle;Signal;HPM_P1;HPM_P2
2021/11/03 00:01:27;;;;;;;;;;;8.20;99.90;;;;;;5112207;28;20257;-59
2021/11/03 00:03:52;;;;;;;;;;;8.20;99.90;;;;;;5112184;28;19920;-59
2021/11/03 00:06:19;;;;;;;;;;;8.20;99.90;;;;;;5112099;28;19923;-59
2021/11/03 00:08:46;;;;;;;;;;;8.10;99.90;;;;;;5116376;28;20041;-60
2021/11/03 00:11:11;;;;;;;;;;;8.10;99.90;;;;;;5116085;28;20357;-59
2021/11/03 00:13:37;;;;;;;;;;;8.10;99.90;;;;;;5116059;28;19919;-59
2021/11/03 00:16:02;;;;;;;;;;;8.10;99.90;;;;;;5115965;28;19924;-59
2021/11/03 00:18:28;;;;;;;;;;;8.10;99.90;;;;;;5115962;28;20006;-59
2021/11/03 00:20:55;;;;;;;;;;;8.10;99.90;;;;;;5116043;28;19924;-59
2021/11/03 00:23:21;;;;;;;;;;;8.10;99.90;;;;;;5116143;28;19927;-59
2021/11/03 00:25:47;;;;;;;;;;;8.10;99.90;;;;;;5115822;28;19935;-59
2021/11/03 00:28:20;;;;;;;;;;;8.00;99.90;;;;;;5116071;28;19931;-59
2021/11/03 00:30:47;;;;;;;;;;;8.00;99.90;;;;;;5115685;28;19920;-59
2021/11/03 00:33:13;;;;;;;;;;;8.00;99.90;;;;;;5115771;28;19924;-60
2021/11/03 00:35:38;;;;;;;;;;;8.00;99.90;;;;;;5115618;28;19989;-59
2021/11/03 00:38:04;;;;;;;;;;;7.90;99.90;;;;;;5115798;28;19923;-59
2021/11/03 00:40:29;;;;;;;;;;;8.00;99.90;;;;;;5115953;28;19924;-60
2021/11/03 00:42:55;;;;;;;;;;;8.00;99.90;;;;;;5115709;28;19923;-60
2021/11/03 00:45:21;;;;;;;;;;;8.00;99.90;;;;;;5115368;28;19923;-59
2021/11/03 00:47:46;;;;;;;;;;;8.00;99.90;;;;;;5115391;28;19926;-59
2021/11/03 00:50:12;;;;;;;;;;;8.00;99.90;;;;;;5115354;28;20269;-59
2021/11/03 00:52:38;;;;;;;;;;;8.00;99.90;;;;;;5115516;28;20285;-59
2021/11/03 00:55:04;;;;;;;;;;;8.00;99.90;;;;;;5115358;28;19926;-59
2021/11/03 00:57:30;;;;;;;;;;;8.00;99.90;;;;;;5115134;28;20004;-59
2021/11/03 00:59:55;;;;;;;;;;;8.00;99.90;;;;;;5115263;28;19973;-59
2021/11/03 01:02:20;;;;;;;;;;;8.00;99.90;;;;;;5115111;28;19920;-59
2021/11/03 01:04:46;;;;;;;;;;;8.00;99.90;;;;;;5115049;28;19931;-59
2021/11/03 01:07:12;;;;;;;;;;;8.00;99.90;;;;;;5115063;28;19982;-59
2021/11/03 01:09:38;;;;;;;;;;;8.00;99.90;;;;;;5115109;28;20445;-59
2021/11/03 01:12:04;;;;;;;;;;;8.00;99.90;;;;;;5115054;28;20020;-59
2021/11/03 01:14:30;;;;;;;;;;;8.00;99.90;;;;;;5114935;28;19971;-59
2021/11/03 01:16:56;;;;;;;;;;;8.00;99.90;;;;;;5114930;28;19992;-59
2021/11/03 01:19:21;;;;;;;;;;;8.00;99.90;;;;;;5114393;28;19919;-59
2021/11/03 01:21:47;;;;;;;;;;;8.00;99.90;;;;;;5115214;28;19923;-59
2021/11/03 01:24:12;;;;;;;;;;;8.10;99.90;;;;;;5114581;28;19928;-59
2021/11/03 01:26:38;;;;;;;;;;;8.10;99.90;;;;;;5114837;28;20298;-60
2021/11/03 01:29:04;;;;;;;;;;;8.00;99.90;;;;;;5114648;28;20259;-59
2021/11/03 01:31:31;;;;;;;;;;;8.10;99.90;;;;;;5114569;28;20006;-58
2021/11/03 01:33:59;;;;;;;;;;;8.10;99.90;;;;;;5114637;28;20034;-59
2021/11/03 01:36:25;;;;;;;;;;;8.10;99.90;;;;;;5114662;28;19919;-59
2021/11/03 01:38:51;;;;;;;;;;;8.00;99.90;;;;;;5114506;28;19926;-59
2021/11/03 01:41:17;;;;;;;;;;;8.10;99.90;;;;;;5114306;28;19942;-59
2021/11/03 01:43:47;;;;;;;;;;;8.10;99.90;;;;;;5114397;28;19919;-59
2021/11/03 01:46:20;;;;;;;;;;;8.00;99.90;;;;;;5114199;28;19976;-59
2021/11/03 01:48:46;;;;;;;;;;;8.10;99.90;;;;;;5114436;28;19928;-59
2021/11/03 01:51:19;;;;;;;;;;;8.10;99.90;;;;;;5114335;28;19931;-59
2021/11/03 01:53:44;;;;;;;;;;;8.00;99.90;;;;;;5095980;28;19965;-59
2021/11/03 01:56:10;;;;;;;;;;;8.00;99.90;;;;;;5114096;28;20277;-58
2021/11/03 01:58:39;;;;;;;;;;;8.10;99.90;;;;;;5114103;28;19970;-59
2021/11/03 02:01:05;;;;;;;;;;;8.00;99.90;;;;;;5114169;28;19920;-59
2021/11/03 02:03:31;;;;;;;;;;;8.10;99.90;;;;;;5114145;28;20015;-59
2021/11/03 02:06:02;;;;;;;;;;;8.10;99.90;;;;;;5113807;28;19959;-58
2021/11/03 02:08:29;;;;;;;;;;;8.00;99.90;;;;;;5095755;28;19927;-59
2021/11/03 02:10:55;;;;;;;;;;;8.00;99.90;;;;;;5113808;28;19919;-59
2021/11/03 02:13:20;;;;;;;;;;;8.00;99.90;;;;;;5113726;28;19948;-59
2021/11/03 02:15:46;;;;;;;;;;;8.00;99.90;;;;;;5113880;28;19966;-60
2021/11/03 02:18:14;;;;;;;;;;;8.00;99.90;;;;;;5113701;28;19926;-59
2021/11/03 02:20:41;;;;;;;;;;;8.00;99.90;;;;;;5113772;28;19919;-59
2021/11/03 02:23:10;;;;;;;;;;;8.00;99.90;;;;;;5113515;28;19986;-60
2021/11/03 02:25:39;;;;;;;;;;;8.00;99.90;;;;;;5113047;28;19924;-59
2021/11/03 02:28:06;;;;;;;;;;;7.90;99.90;;;;;;5113345;28;20357;-60
2021/11/03 02:30:32;;;;;;;;;;;7.90;99.90;;;;;;5112862;28;19920;-59
2021/11/03 02:33:02;;;;;;;;;;;7.90;99.90;;;;;;5113374;28;19927;-59
2021/11/03 02:35:28;;;;;;;;;;;7.90;99.90;;;;;;5113266;28;20365;-59
2021/11/03 02:37:55;;;;;;;;;;;7.90;99.90;;;;;;5113323;28;19927;-59
2021/11/03 02:40:41;;;;;;;;;;;7.90;99.90;;;;;;5113217;28;20301;-59
2021/11/03 02:43:16;;;;;;;;;;;7.90;99.90;;;;;;5094141;28;19919;-59
2021/11/03 02:45:43;;;;;;;;;;;7.90;99.90;;;;;;5113242;28;20289;-59
2021/11/03 02:48:10;;;;;;;;;;;8.00;99.90;;;;;;5113188;28;19920;-59
2021/11/03 02:50:36;;;;;;;;;;;7.80;99.90;;;;;;5094664;28;19920;-58
2021/11/03 02:53:02;;;;;;;;;;;7.80;99.90;;;;;;5112958;28;19988;-58
2021/11/03 02:55:27;;;;;;;;;;;7.80;99.90;;;;;;5113109;28;20407;-59
2021/11/03 02:57:53;;;;;;;;;;;7.90;99.90;;;;;;5113122;28;19930;-59
2021/11/03 03:00:20;;;;;;;;;;;7.80;99.90;;;;;;5113271;28;19920;-59
2021/11/03 03:02:46;;;;;;;;;;;7.90;99.90;;;;;;5112726;28;20448;-59
2021/11/03 03:05:13;;;;;;;;;;;7.90;99.90;;;;;;5112773;28;20015;-59
2021/11/03 03:07:38;;;;;;;;;;;7.80;99.90;;;;;;5112769;28;19924;-60
2021/11/03 03:10:05;;;;;;;;;;;7.80;99.90;;;;;;5112969;28;19919;-59
2021/11/03 03:12:31;;;;;;;;;;;7.80;99.90;;;;;;5112778;28;19924;-59
2021/11/03 03:14:57;;;;;;;;;;;7.80;99.90;;;;;;5112696;28;19965;-59
2021/11/03 03:17:23;;;;;;;;;;;7.90;99.90;;;;;;5112646;28;19928;-59
2021/11/03 03:19:48;;;;;;;;;;;7.90;99.90;;;;;;5112573;28;19927;-59
2021/11/03 03:22:15;;;;;;;;;;;7.90;99.90;;;;;;5112548;28;19926;-60
2021/11/03 03:24:41;;;;;;;;;;;7.80;99.90;;;;;;5112467;28;20015;-59
2021/11/03 03:27:07;;;;;;;;;;;7.80;99.90;;;;;;5112673;28;20006;-59
2021/11/03 03:29:33;;;;;;;;;;;7.80;99.90;;;;;;5112670;28;19928;-60
2021/11/03 03:31:59;;;;;;;;;;;7.70;99.90;;;;;;5112879;28;19923;-58
2021/11/03 03:34:25;;;;;;;;;;;7.70;99.90;;;;;;5112698;28;20348;-59
2021/11/03 03:36:51;;;;;;;;;;;7.70;99.90;;;;;;5112385;28;19926;-58
2021/11/03 03:39:18;;;;;;;;;;;7.70;99.90;;;;;;5112417;28;20384;-59
2021/11/03 03:41:46;;;;;;;;;;;7.70;99.90;;;;;;5115059;28;20307;-59
2021/11/03 03:44:12;;;;;;;;;;;7.70;99.90;;;;;;5116784;28;19920;-59
2021/11/03 03:46:37;;;;;;;;;;;7.70;99.90;;;;;;5116653;28;20413;-58
2021/11/03 03:49:03;;;;;;;;;;;7.70;99.90;;;;;;5116514;28;19927;-59
2021/11/03 03:51:29;;;;;;;;;;;7.60;99.90;;;;;;5116444;28;20014;-59
2021/11/03 03:53:54;;;;;;;;;;;7.60;99.90;;;;;;5116442;28;19927;-59
2021/11/03 03:56:21;;;;;;;;;;;7.60;99.90;;;;;;5116572;28;19920;-59
2021/11/03 03:58:48;;;;;;;;;;;7.60;99.90;;;;;;5098448;28;19920;-60
2021/11/03 04:01:15;;;;;;;;;;;7.60;99.90;;;;;;5116478;28;20292;-59
2021/11/03 04:03:41;;;;;;;;;;;7.60;99.90;;;;;;5116292;28;20406;-59
2021/11/03 04:06:06;;;;;;;;;;;7.50;99.90;;;;;;5116375;28;19924;-59
2021/11/03 04:08:32;;;;;;;;;;;7.50;99.90;;;;;;5116386;28;19942;-59
2021/11/03 04:10:58;;;;;;;;;;;7.50;99.90;;;;;;5116380;28;20300;-59
2021/11/03 04:13:24;;;;;;;;;;;7.50;99.90;;;;;;5116120;28;19923;-59
2021/11/03 04:15:49;;;;;;;;;;;7.50;99.90;;;;;;5116180;28;19919;-59
2021/11/03 04:18:15;;;;;;;;;;;7.40;99.90;;;;;;5116002;28;20274;-59
2021/11/03 04:20:41;;;;;;;;;;;7.50;99.90;;;;;;5116172;28;19919;-59
2021/11/03 04:23:07;;;;;;;;;;;7.50;99.90;;;;;;5116005;28;19919;-60
2021/11/03 04:25:33;;;;;;;;;;;7.50;99.90;;;;;;5115891;28;19957;-59
2021/11/03 04:27:58;;;;;;;;;;;7.40;99.90;;;;;;5116138;28;19923;-59
2021/11/03 04:30:24;;;;;;;;;;;7.40;99.90;;;;;;5115764;28;19927;-59
2021/11/03 04:32:50;;;;;;;;;;;7.40;99.90;;;;;;5115558;28;19927;-59
2021/11/03 04:35:15;;;;;;;;;;;7.30;99.90;;;;;;5115881;28;19980;-59
2021/11/03 04:37:41;;;;;;;;;;;7.30;99.90;;;;;;5115897;28;19967;-59
2021/11/03 04:40:08;;;;;;;;;;;7.30;99.90;;;;;;5115694;28;19920;-59
2021/11/03 04:42:34;;;;;;;;;;;7.20;99.90;;;;;;5115467;28;19940;-59
2021/11/03 04:44:59;;;;;;;;;;;7.20;99.90;;;;;;5115501;28;19923;-59
2021/11/03 04:47:25;;;;;;;;;;;7.10;99.90;;;;;;5115446;28;19920;-59
2021/11/03 04:49:51;;;;;;;;;;;7.10;99.90;;;;;;5115635;28;20365;-59
2021/11/03 04:52:16;;;;;;;;;;;6.90;99.90;;;;;;5114865;28;19955;-59
2021/11/03 04:54:42;;;;;;;;;;;6.90;99.90;;;;;;5115441;28;19927;-59
2021/11/03 04:57:08;;;;;;;;;;;6.90;99.90;;;;;;5115284;28;20330;-59
2021/11/03 04:59:34;;;;;;;;;;;6.90;99.90;;;;;;5096916;28;20015;-59
2021/11/03 05:01:59;;;;;;;;;;;6.80;99.90;;;;;;5115124;28;19924;-59
2021/11/03 05:04:25;;;;;;;;;;;6.80;99.90;;;;;;5115292;28;19920;-59
2021/11/03 05:06:50;;;;;;;;;;;6.70;99.90;;;;;;5115452;28;20404;-60
2021/11/03 05:09:17;;;;;;;;;;;6.70;99.90;;;;;;5115295;28;19932;-59
2021/11/03 05:11:43;;;;;;;;;;;6.60;99.90;;;;;;5114937;28;20377;-59
2021/11/03 05:14:08;;;;;;;;;;;6.60;99.90;;;;;;5115440;28;19970;-59
2021/11/03 05:16:35;;;;;;;;;;;6.60;99.90;;;;;;5114804;28;19950;-59
2021/11/03 05:19:00;;;;;;;;;;;6.40;99.90;;;;;;5115059;28;19926;-59
2021/11/03 05:21:26;;;;;;;;;;;6.40;99.90;;;;;;5114967;28;19919;-59
2021/11/03 05:23:52;;;;;;;;;;;6.40;99.90;;;;;;5114628;28;19924;-58
2021/11/03 05:26:21;;;;;;;;;;;6.30;99.90;;;;;;5114645;28;19924;-58
2021/11/03 05:28:49;;;;;;;;;;;6.30;99.90;;;;;;5114634;28;19919;-59
2021/11/03 05:31:15;;;;;;;;;;;6.20;99.90;;;;;;5114610;28;20377;-59
2021/11/03 05:33:40;;;;;;;;;;;6.30;99.90;;;;;;5096289;28;19980;-59
2021/11/03 05:36:06;;;;;;;;;;;6.30;99.90;;;;;;5114524;28;19923;-59
2021/11/03 05:38:32;;;;;;;;;;;6.30;99.90;;;;;;5114459;28;20011;-59
2021/11/03 05:40:57;;;;;;;;;;;6.20;99.90;;;;;;5114629;28;19970;-59
2021/11/03 05:43:23;;;;;;;;;;;6.20;99.90;;;;;;5114450;28;20388;-59
2021/11/03 05:45:50;;;;;;;;;;;6.20;99.90;;;;;;5114250;28;20274;-59
2021/11/03 05:48:15;;;;;;;;;;;6.20;99.90;;;;;;5114509;28;19927;-59
2021/11/03 05:50:41;;;;;;;;;;;6.20;99.90;;;;;;5114394;28;19920;-58
2021/11/03 05:53:06;;;;;;;;;;;6.20;99.90;;;;;;5114197;28;20284;-59
2021/11/03 05:55:32;;;;;;;;;;;6.20;99.90;;;;;;5114270;28;19986;-58
2021/11/03 05:57:58;;;;;;;;;;;6.30;99.90;;;;;;5114027;28;19934;-58
2021/11/03 06:00:26;;;;;;;;;;;6.20;99.90;;;;;;5114208;28;19924;-59
2021/11/03 06:02:51;;;;;;;;;;;6.20;99.90;;;;;;5114034;28;20369;-59
2021/11/03 06:05:17;;;;;;;;;;;6.20;99.90;;;;;;5113188;28;20359;-59
2021/11/03 06:07:56;;;;;;;;;;;6.10;99.90;;;;;;5113942;28;19923;-59
2021/11/03 06:10:23;;;;;;;;;;;6.10;99.90;;;;;;5113895;28;19989;-59
2021/11/03 06:12:49;;;;;;;;;;;6.10;99.90;;;;;;5095739;28;19932;-58
2021/11/03 06:15:15;;;;;;;;;;;6.10;99.90;;;;;;5113803;28;20060;-59
2021/11/03 06:17:40;;;;;;;;;;;6.10;99.90;;;;;;5113883;28;20014;-59
2021/11/03 06:20:08;;;;;;;;;;;6.10;99.90;;;;;;5113755;28;20262;-59
2021/11/03 06:22:34;;;;;;;;;;;6.00;99.90;;;;;;5113504;28;20011;-59
2021/11/03 06:24:59;;;;;;;;;;;6.10;99.90;;;;;;5113425;28;20007;-59
2021/11/03 06:27:25;;;;;;;;;;;6.00;99.90;;;;;;5113476;28;20254;-58
2021/11/03 06:29:51;;;;;;;;;;;6.00;99.90;;;;;;5113639;28;19993;-59
2021/11/03 06:32:16;;;;;;;;;;;6.00;99.90;;;;;;5095601;28;20325;-59
2021/11/03 06:34:42;;;;;;;;;;;6.00;99.90;;;;;;5113799;28;19920;-59
2021/11/03 06:37:07;;;;;;;;;;;6.00;99.90;;;;;;5113693;28;19967;-59
2021/11/03 06:39:33;;;;;;;;;;;6.00;99.90;;;;;;5113269;28;19924;-58
2021/11/03 06:41:59;;;;;;;;;;;6.00;99.90;;;;;;5113198;28;19923;-58
2021/11/03 06:44:24;;;;;;;;;;;6.00;99.90;;;;;;5095052;28;19972;-59
2021/11/03 06:46:50;;;;;;;;;;;6.10;99.90;;;;;;5113280;28;19920;-58
2021/11/03 06:49:16;;;;;;;;;;;6.10;99.90;;;;;;5113295;28;19919;-59
2021/11/03 06:51:41;;;;;;;;;;;6.10;99.90;;;;;;5113088;28;19927;-58
2021/11/03 06:54:07;;;;;;;;;;;6.00;99.90;;;;;;5113110;28;19927;-59
2021/11/03 06:56:33;;;;;;;;;;;6.00;99.90;;;;;;5113013;28;19930;-58
2021/11/03 06:58:59;;;;;;;;;;;6.10;99.90;;;;;;5112956;28;20369;-58
2021/11/03 07:01:25;;;;;;;;;;;6.10;99.90;;;;;;5113010;28;19926;-58
2021/11/03 07:03:51;;;;;;;;;;;6.10;99.90;;;;;;5113026;28;20445;-59
2021/11/03 07:06:16;;;;;;;;;;;6.00;99.90;;;;;;5112787;28;19931;-59
2021/11/03 07:08:42;;;;;;;;;;;6.00;99.90;;;;;;5112826;28;20046;-59
2021/11/03 07:11:09;;;;;;;;;;;6.00;99.90;;;;;;5112735;28;20002;-57
2021/11/03 07:13:35;;;;;;;;;;;6.00;99.90;;;;;;5094529;28;19976;-58
2021/11/03 07:16:01;;;;;;;;;;;6.00;99.90;;;;;;5112567;28;20053;-57
2021/11/03 07:18:26;;;;;;;;;;;6.10;99.90;;;;;;5112959;28;20010;-58
2021/11/03 07:20:52;;;;;;;;;;;6.10;99.90;;;;;;5113502;28;20376;-58
2021/11/03 07:23:19;;;;;;;;;;;6.10;99.90;;;;;;5112682;28;20389;-57
2021/11/03 07:25:45;;;;;;;;;;;6.10;99.90;;;;;;5112329;28;19931;-58
2021/11/03 07:28:13;;;;;;;;;;;6.00;99.90;;;;;;5112491;28;20935;-58
2021/11/03 07:30:39;;;;;;;;;;;6.10;99.90;;;;;;5112695;28;19947;-58
2021/11/03 07:33:05;;;;;;;;;;;6.00;99.90;;;;;;5094537;28;19919;-57
2021/11/03 07:35:31;;;;;;;;;;;6.00;99.90;;;;;;5112630;28;20010;-58
2021/11/03 07:37:57;;;;;;;;;;;6.00;99.90;;;;;;5112484;28;20003;-58
2021/11/03 07:40:24;;;;;;;;;;;5.90;99.90;;;;;;5112267;28;20023;-58
2021/11/03 07:42:50;;;;;;;;;;;5.80;99.90;;;;;;5112750;28;19927;-58
2021/11/03 07:45:16;;;;;;;;;;;5.70;99.90;;;;;;5112168;28;20373;-58
2021/11/03 07:47:42;;;;;;;;;;;5.70;99.90;;;;;;5094223;28;19926;-58
2021/11/03 07:50:15;;;;;;;;;;;5.60;99.90;;;;;;5112420;28;20292;-58
2021/11/03 07:52:41;;;;;;;;;;;5.60;99.90;;;;;;5112339;28;19959;-58
2021/11/03 07:55:07;;;;;;;;;;;5.60;99.90;;;;;;5112325;28;19959;-58
2021/11/03 07:57:32;;;;;;;;;;;5.50;99.90;;;;;;5112427;28;19976;-58
2021/11/03 07:59:58;;;;;;;;;;;5.50;99.90;;;;;;5112212;28;19919;-58
2021/11/03 08:02:23;;;;;;;;;;;5.50;99.90;;;;;;5112367;28;19972;-58
2021/11/03 08:04:49;;;;;;;;;;;5.50;99.90;;;;;;5112258;28;20009;-58
2021/11/03 08:07:14;;;;;;;;;;;5.40;99.90;;;;;;5112202;28;20380;-58
2021/11/03 08:09:45;;;;;;;;;;;5.40;99.90;;;;;;5112096;28;20305;-58
2021/11/03 08:12:11;;;;;;;;;;;5.30;99.90;;;;;;5112332;28;19920;-58
2021/11/03 08:14:37;;;;;;;;;;;5.30;99.90;;;;;;5112362;28;19927;-58
2021/11/03 08:17:07;;;;;;;;;;;5.40;99.90;;;;;;5112183;28;20011;-58
2021/11/03 08:19:35;;;;;;;;;;;5.30;99.90;;;;;;5112017;28;20404;-58
2021/11/03 08:22:01;;;;;;;;;;;5.30;99.90;;;;;;5093948;28;20296;-58
2021/11/03 08:24:26;;;;;;;;;;;5.40;99.90;;;;;;5111828;28;19924;-58
2021/11/03 08:26:53;;;;;;;;;;;5.40;99.90;;;;;;5112251;28;20009;-58
2021/11/03 08:29:19;;;;;;;;;;;5.50;99.90;;;;;;5115337;28;19924;-58
2021/11/03 08:31:45;;;;;;;;;;;5.40;99.90;;;;;;5115896;28;20266;-58
2021/11/03 08:34:11;;;;;;;;;;;5.30;99.90;;;;;;5115629;28;19920;-58
2021/11/03 08:36:37;;;;;;;;;;;5.30;99.90;;;;;;5115677;28;19927;-58
2021/11/03 08:39:04;;;;;;;;;;;5.40;99.90;;;;;;5115642;28;20395;-59
2021/11/03 08:41:30;;;;;;;;;;;5.30;99.90;;;;;;5115648;28;19920;-58
2021/11/03 08:43:55;;;;;;;;;;;5.30;99.90;;;;;;5115536;28;19920;-58
2021/11/03 08:46:21;;;;;;;;;;;5.30;99.90;;;;;;5115496;28;19971;-58
2021/11/03 08:48:47;;;;;;;;;;;5.40;99.90;;;;;;5115501;28;19924;-58
2021/11/03 08:51:12;;;;;;;;;;;5.40;99.90;;;;;;5115515;28;19920;-58
2021/11/03 08:53:38;;;;;;;;;;;5.50;99.90;;;;;;5115517;28;19984;-58
2021/11/03 08:56:03;;;;;;;;;;;5.50;99.90;;;;;;5115796;28;19927;-58
2021/11/03 08:58:29;;;;;;;;;;;5.60;99.90;;;;;;5115424;28;20348;-58
2021/11/03 09:00:56;;;;;;;;;;;5.60;99.90;;;;;;5115283;28;19999;-58
2021/11/03 09:03:21;;;;;;;;;;;5.60;99.90;;;;;;5097121;28;19919;-58
2021/11/03 09:05:48;;;;;;;;;;;5.60;99.90;;;;;;5115000;28;19919;-58
2021/11/03 09:08:14;;;;;;;;;;;5.60;99.90;;;;;;5115277;28;19931;-58
2021/11/03 09:10:45;;;;;;;;;;;5.80;99.90;;;;;;5096645;28;19924;-58
2021/11/03 09:13:11;;;;;;;;;;;5.80;99.90;;;;;;5115165;28;19920;-58
2021/11/03 09:15:37;;;;;;;;;;;5.80;99.90;;;;;;5114997;28;19920;-58
2021/11/03 09:18:02;;;;;;;;;;;5.80;99.90;;;;;;5096764;28;20007;-58
2021/11/03 09:20:28;;;;;;;;;;;5.90;99.90;;;;;;5114834;28;20372;-58
2021/11/03 09:22:54;;;;;;;;;;;5.90;99.90;;;;;;5080071;28;20373;-59
2021/11/03 09:25:22;;;;;;;;;;;6.00;99.90;;;;;;5114532;28;19930;-58
2021/11/03 09:27:48;;;;;;;;;;;6.00;99.90;;;;;;5115177;28;19920;-58
2021/11/03 09:30:14;;;;;;;;;;;6.00;99.90;;;;;;5114764;28;19926;-58
2021/11/03 09:32:42;;;;;;;;;;;6.10;99.90;;;;;;5114548;28;19919;-58
2021/11/03 09:35:08;;;;;;;;;;;6.10;99.90;;;;;;5114350;28;20289;-58
2021/11/03 09:37:34;;;;;;;;;;;6.20;99.90;;;;;;5114730;28;19926;-58
2021/11/03 09:40:00;;;;;;;;;;;6.10;99.90;;;;;;5114393;28;19927;-58
2021/11/03 09:42:26;;;;;;;;;;;6.20;99.90;;;;;;5114522;28;20021;-58
2021/11/03 09:44:53;;;;;;;;;;;6.20;99.90;;;;;;5114346;28;19931;-58
2021/11/03 09:47:23;;;;;;;;;;;6.20;99.90;;;;;;5114322;28;19919;-58
2021/11/03 09:49:49;;;;;;;;;;;6.30;99.90;;;;;;5114282;28;19920;-58
2021/11/03 09:52:15;;;;;;;;;;;6.40;99.90;;;;;;5114113;28;19927;-58
2021/11/03 09:54:43;;;;;;;;;;;6.50;99.90;;;;;;5114392;28;19920;-58
2021/11/03 09:57:18;;;;;;;;;;;6.60;99.90;;;;;;5114032;28;20002;-58
2021/11/03 09:59:48;;;;;;;;;;;6.50;99.90;;;;;;5114196;28;20309;-58
2021/11/03 10:02:20;;;;;;;;;;;6.60;99.90;;;;;;5114297;28;20380;-58
2021/11/03 10:04:51;;;;;;;;;;;6.60;99.90;;;;;;5113793;28;20369;-58
2021/11/03 10:07:29;;;;;;;;;;;6.60;99.90;;;;;;5113980;28;20389;-58
2021/11/03 10:09:54;;;;;;;;;;;6.60;99.90;;;;;;5113986;28;20081;-58
2021/11/03 10:12:20;;;;;;;;;;;6.60;99.90;;;;;;5113870;28;20014;-58
2021/11/03 10:14:46;;;;;;;;;;;6.50;99.90;;;;;;5113635;28;19920;-58
2021/11/03 10:17:20;;;;;;;;;;;6.50;99.90;;;;;;5113961;28;19926;-58
2021/11/03 10:19:45;;;;;;;;;;;6.50;99.90;;;;;;5113820;28;19919;-58
2021/11/03 10:22:29;;;;;;;;;;;6.50;99.90;;;;;;5095960;28;19930;-58
2021/11/03 10:24:59;;;;;;;;;;;6.50;99.90;;;;;;5113293;28;19932;-58
2021/11/03 10:27:25;;;;;;;;;;;6.50;99.90;;;;;;5095444;28;20258;-58
2021/11/03 10:29:52;;;;;;;;;;;6.50;99.90;;;;;;5113572;28;19941;-58
2021/11/03 10:32:20;;;;;;;;;;;6.60;99.90;;;;;;5095415;28;19968;-58
2021/11/03 10:34:47;;;;;;;;;;;6.60;99.90;;;;;;5113710;28;19919;-58
2021/11/03 10:37:16;;;;;;;;;;;6.70;99.90;;;;;;5113540;28;19939;-58
2021/11/03 10:39:48;;;;;;;;;;;6.80;99.90;;;;;;5113490;28;19924;-58
2021/11/03 10:42:18;;;;;;;;;;;6.90;99.90;;;;;;5113329;28;19972;-59
2021/11/03 10:44:43;;;;;;;;;;;6.80;99.90;;;;;;5113274;28;19976;-58
2021/11/03 10:47:11;;;;;;;;;;;7.00;99.90;;;;;;5113301;28;19966;-58
2021/11/03 10:49:50;;;;;;;;;;;7.00;99.90;;;;;;5113195;28;19919;-58
2021/11/03 10:52:19;;;;;;;;;;;7.10;99.90;;;;;;5112839;28;19977;-58
2021/11/03 10:54:48;;;;;;;;;;;7.10;99.90;;;;;;5113184;28;20397;-58
2021/11/03 10:57:19;;;;;;;;;;;7.10;99.90;;;;;;5113217;28;20006;-59
2021/11/03 11:00:02;;;;;;;;;;;7.10;99.90;;;;;;5113001;28;19961;-58
2021/11/03 11:02:31;;;;;;;;;;;7.10;99.90;;;;;;5112972;28;19941;-58
2021/11/03 11:04:57;;;;;;;;;;;7.20;99.90;;;;;;5112914;28;20380;-59
2021/11/03 11:07:31;;;;;;;;;;;7.20;99.90;;;;;;5112977;28;19924;-59
2021/11/03 11:10:00;;;;;;;;;;;7.20;99.90;;;;;;5112970;28;19927;-58
2021/11/03 11:12:28;;;;;;;;;;;7.30;99.90;;;;;;5112816;28;19926;-58
2021/11/03 11:15:14;;;;;;;;;;;7.40;99.90;;;;;;5112715;28;19959;-58
2021/11/03 11:17:48;;;;;;;;;;;7.40;99.90;;;;;;5112662;28;20007;-58
2021/11/03 11:20:32;;;;;;;;;;;7.40;99.90;;;;;;5112827;28;19919;-58
2021/11/03 11:23:18;;;;;;;;;;;7.50;99.90;;;;;;5112532;28;19927;-58
2021/11/03 11:26:02;;;;;;;;;;;7.50;99.90;;;;;;5112437;28;19930;-59
2021/11/03 11:28:46;;;;;;;;;;;7.50;99.90;;;;;;5112719;28;19920;-59
2021/11/03 11:31:31;;;;;;;;;;;7.60;99.90;;;;;;5112631;28;20003;-58
2021/11/03 11:34:02;;;;;;;;;;;7.60;99.90;;;;;;5112748;28;20282;-58
2021/11/03 11:36:40;;;;;;;;;;;7.60;99.90;;;;;;5112634;28;19945;-58
2021/11/03 11:39:36;;;;;;;;;;;7.60;99.90;;;;;;5112478;28;19920;-58
2021/11/03 11:42:04;;;;;;;;;;;7.60;99.90;;;;;;5009920;28;20298;-58
2021/11/03 11:44:30;;;;;;;;;;;7.70;99.90;;;;;;5010061;28;19921;-58
2021/11/03 11:46:57;;;;;;;;;;;7.70;99.90;;;;;;5010108;28;20433;-58
2021/11/03 11:49:29;;;;;;;;;;;7.70;99.90;;;;;;5010146;28;19932;-58
2021/11/03 11:51:57;;;;;;;;;;;7.70;99.90;;;;;;5010014;28;19925;-58
2021/11/03 11:54:52;;;;;;;;;;;7.70;99.90;;;;;;5009993;28;19921;-58
2021/11/03 11:57:17;;;;;;;;;;;7.80;99.90;;;;;;4951661;29;19922;-58
2021/11/03 12:00:00;;;;;;;;;;;7.80;99.90;;;;;;4951632;29;20287;-58
2021/11/03 12:02:27;;;;;;;;;;;7.90;99.90;;;;;;4953435;28;19926;-59
2021/11/03 12:05:11;;;;;;;;;;;7.90;99.90;;;;;;4955270;29;19930;-58
2021/11/03 12:07:39;;;;;;;;;;;8.00;99.90;;;;;;4955257;29;19923;-58
2021/11/03 12:10:16;;;;;;;;;;;8.10;99.90;;;;;;4955334;29;19929;-58
2021/11/03 12:13:00;;;;;;;;;;;8.10;99.90;;;;;;4939122;29;19922;-59
2021/11/03 12:15:44;;;;;;;;;;;8.20;99.90;;;;;;4955209;29;19969;-58
2021/11/03 12:18:17;;;;;;;;;;;8.30;99.90;;;;;;4985719;28;19976;-58
2021/11/03 12:20:45;;;;;;;;;;;8.30;99.90;;;;;;5033219;28;19921;-58
2021/11/03 12:23:34;;;;;;;;;;;8.30;99.90;;;;;;5033160;28;19921;-58
2021/11/03 12:26:18;;;;;;;;;;;8.30;99.90;;;;;;5032792;28;20015;-59
2021/11/03 12:29:07;;;;;;;;;;;8.30;99.90;;;;;;5033108;28;19925;-58
2021/11/03 12:31:47;;;;;;;;;;;8.30;99.90;;;;;;4993626;28;19922;-58
2021/11/03 12:34:17;;;;;;;;;;;8.30;99.90;;;;;;5005139;28;20019;-59
2021/11/03 12:36:49;;;;;;;;;;;8.30;99.90;;;;;;5032952;28;19925;-58
2021/11/03 12:39:29;;;;;;;;;;;8.30;99.90;;;;;;5032816;28;19921;-58
2021/11/03 12:41:56;;;;;;;;;;;8.30;99.90;;;;;;5032923;28;19974;-58
2021/11/03 12:44:26;;;;;;;;;;;8.30;99.90;;;;;;5032886;28;20287;-58
2021/11/03 12:46:52;;;;;;;;;;;8.30;99.90;;;;;;5032779;28;19929;-58
2021/11/03 12:49:20;;;;;;;;;;;8.20;99.90;;;;;;5032568;28;20298;-58
2021/11/03 12:51:50;;;;;;;;;;;8.30;99.90;;;;;;5032701;28;20345;-58
2021/11/03 12:54:20;;;;;;;;;;;8.30;99.90;;;;;;5016407;28;19944;-58
2021/11/03 12:57:02;;;;;;;;;;;8.30;99.90;;;;;;5032447;28;20283;-58
2021/11/03 12:59:33;;;;;;;;;;;8.40;99.90;;;;;;5032620;28;19972;-58
2021/11/03 13:02:01;;;;;;;;;;;8.30;99.90;;;;;;5032558;28;19921;-58
2021/11/03 13:04:33;;;;;;;;;;;8.30;99.90;;;;;;5032526;28;19923;-58
2021/11/03 13:07:14;;;;;;;;;;;8.30;99.90;;;;;;5032533;28;19925;-58
2021/11/03 13:09:42;;;;;;;;;;;8.20;99.90;;;;;;5112584;28;19920;-59
2021/11/03 13:12:22;;;;;;;;;;;8.20;99.90;;;;;;5115153;28;19919;-58
2021/11/03 13:14:52;;;;;;;;;;;8.20;99.90;;;;;;5114475;28;19920;-58
2021/11/03 13:17:25;;;;;;;;;;;8.20;99.90;;;;;;5115108;28;19919;-58
2021/11/03 13:19:50;;;;;;;;;;;8.20;99.90;;;;;;5079132;28;19920;-58
2021/11/03 13:22:20;;;;;;;;;;;8.20;99.90;;;;;;5114738;28;19927;-58
2021/11/03 13:24:45;;;;;;;;;;;8.20;99.90;;;;;;5114597;28;19977;-58
2021/11/03 13:27:14;;;;;;;;;;;8.30;99.90;;;;;;5114874;28;20006;-58
2021/11/03 13:29:41;;;;;;;;;;;8.30;99.90;;;;;;5114739;28;19919;-58
2021/11/03 13:32:26;;;;;;;;;;;8.30;99.90;;;;;;5114644;28;20045;-58
2021/11/03 13:34:54;;;;;;;;;;;8.20;99.90;;;;;;5114558;28;19919;-59
2021/11/03 13:37:20;;;;;;;;;;;8.30;99.90;;;;;;5114746;28;19966;-58
2021/11/03 13:39:53;;;;;;;;;;;8.40;99.90;;;;;;5114443;28;20387;-59
2021/11/03 13:42:34;;;;;;;;;;;8.40;99.90;;;;;;5114411;28;19919;-59
2021/11/03 13:45:06;;;;;;;;;;;8.40;99.90;;;;;;5096023;28;19920;-58
2021/11/03 13:47:32;;;;;;;;;;;8.40;99.90;;;;;;5114570;28;19924;-58
2021/11/03 13:50:17;;;;;;;;;;;8.30;99.90;;;;;;5114542;28;20015;-59
2021/11/03 13:52:54;;;;;;;;;;;8.40;99.90;;;;;;5114585;28;20353;-59
2021/11/03 13:55:22;;;;;;;;;;;8.30;99.90;;;;;;5114509;28;20332;-58
2021/11/03 13:57:47;;;;;;;;;;;8.30;99.90;;;;;;5114612;28;19939;-58
2021/11/03 14:00:13;;;;;;;;;;;8.20;99.90;;;;;;5114401;28;20062;-58
2021/11/03 14:02:39;;;;;;;;;;;8.20;99.90;;;;;;5114198;28;20343;-58
2021/11/03 14:05:23;;;;;;;;;;;8.00;99.90;;;;;;5113977;28;19943;-58
2021/11/03 14:07:49;;;;;;;;;;;8.20;99.90;;;;;;5113956;28;19930;-58
2021/11/03 14:10:14;;;;;;;;;;;8.20;99.90;;;;;;5113851;28;20296;-59
2021/11/03 14:12:40;;;;;;;;;;;8.20;99.90;;;;;;5114139;28;20433;-59
2021/11/03 14:15:06;;;;;;;;;;;8.20;99.90;;;;;;5113861;28;19967;-58
2021/11/03 14:17:34;;;;;;;;;;;8.10;99.90;;;;;;5113959;28;19919;-58
2021/11/03 14:20:17;;;;;;;;;;;8.10;99.90;;;;;;5113759;28;19927;-58
2021/11/03 14:22:43;;;;;;;;;;;8.10;99.90;;;;;;5113939;28;19929;-58
2021/11/03 14:25:11;;;;;;;;;;;8.00;99.90;;;;;;5112719;28;19923;-58
2021/11/03 14:27:37;;;;;;;;;;;8.10;99.90;;;;;;5113552;28;19920;-58
2021/11/03 14:30:03;;;;;;;;;;;8.10;99.90;;;;;;5113875;28;19924;-58
2021/11/03 14:32:28;;;;;;;;;;;8.10;99.90;;;;;;5113513;28;20339;-58
2021/11/03 14:34:55;;;;;;;;;;;8.20;99.90;;;;;;5113474;28;19924;-59
2021/11/03 14:37:21;;;;;;;;;;;8.10;99.90;;;;;;5113402;28;20389;-58